sensor_id;sensor_type;location;lat;lon;timestamp;P1;durP1;ratioP1;P2;durP2;ratioP2
15616;SDS011;7908;51.688;7.130;2022-08-14T00:01:09;5.97;;;4.90;;
15616;SDS011;7908;51.688;7.130;2022-08-14T00:03:39;4.65;;;4.25;;
15616;SDS011;7908;51.688;7.130;2022-08-14T00:06:12;5.18;;;4.78;;
15616;SDS011;7908;51.688;7.130;2022-08-14T00:08:56;4.90;;;4.43;;
15616;SDS011;7908;51.688;7.130;2022-08-14T00:11:26;7.32;;;4.50;;
15616;SDS011;7908;51.688;7.130;2022-08-14T00:13:58;5.70;;;5.05;;
15616;SDS011;7908;51.688;7.130;2022-08-14T00:16:31;5.75;;;4.97;;
15616;SDS011;7908;51.688;7.130;2022-08-14T00:19:10;4.93;;;4.53;;
15616;SDS011;7908;51.688;7.130;2022-08-14T00:21:45;5.20;;;4.60;;
15616;SDS011;7908;51.688;7.130;2022-08-14T00:24:16;5.70;;;5.20;;
15616;SDS011;7908;51.688;7.130;2022-08-14T00:26:58;5.50;;;4.93;;
15616;SDS011;7908;51.688;7.130;2022-08-14T00:29:31;5.35;;;4.85;;
15616;SDS011;7908;51.688;7.130;2022-08-14T00:32:10;6.85;;;5.63;;
15616;SDS011;7908;51.688;7.130;2022-08-14T00:35:07;6.10;;;5.60;;
15616;SDS011;7908;51.688;7.130;2022-08-14T00:37:40;7.65;;;5.55;;
15616;SDS011;7908;51.688;7.130;2022-08-14T00:40:12;5.65;;;5.15;;
15616;SDS011;7908;51.688;7.130;2022-08-14T00:43:00;5.70;;;5.20;;
15616;SDS011;7908;51.688;7.130;2022-08-14T00:45:31;5.72;;;5.22;;
15616;SDS011;7908;51.688;7.130;2022-08-14T00:48:08;5.88;;;5.38;;
15616;SDS011;7908;51.688;7.130;2022-08-14T00:50:58;6.13;;;5.63;;
15616;SDS011;7908;51.688;7.130;2022-08-14T00:53:31;6.38;;;5.78;;
15616;SDS011;7908;51.688;7.130;2022-08-14T00:56:09;7.33;;;6.10;;
15616;SDS011;7908;51.688;7.130;2022-08-14T00:58:41;6.30;;;5.70;;
15616;SDS011;7908;51.688;7.130;2022-08-14T01:01:14;6.05;;;5.55;;
15616;SDS011;7908;51.688;7.130;2022-08-14T01:03:47;6.57;;;5.97;;
15616;SDS011;7908;51.688;7.130;2022-08-14T01:06:19;6.70;;;6.10;;
15616;SDS011;7908;51.688;7.130;2022-08-14T01:08:56;6.63;;;6.00;;
15616;SDS011;7908;51.688;7.130;2022-08-14T01:11:27;7.07;;;6.38;;
15616;SDS011;7908;51.688;7.130;2022-08-14T01:14:04;6.90;;;6.30;;
15616;SDS011;7908;51.688;7.130;2022-08-14T01:16:54;7.17;;;6.47;;
15616;SDS011;7908;51.688;7.130;2022-08-14T01:19:26;7.15;;;6.45;;
15616;SDS011;7908;51.688;7.130;2022-08-14T01:22:16;6.90;;;6.32;;
15616;SDS011;7908;51.688;7.130;2022-08-14T01:24:52;7.32;;;6.60;;
15616;SDS011;7908;51.688;7.130;2022-08-14T01:27:25;8.02;;;6.50;;
15616;SDS011;7908;51.688;7.130;2022-08-14T01:30:02;7.10;;;6.40;;
15616;SDS011;7908;51.688;7.130;2022-08-14T01:32:33;8.60;;;7.80;;
15616;SDS011;7908;51.688;7.130;2022-08-14T01:35:08;9.70;;;8.80;;
15616;SDS011;7908;51.688;7.130;2022-08-14T01:38:02;9.83;;;8.90;;
15616;SDS011;7908;51.688;7.130;2022-08-14T01:40:31;8.45;;;7.68;;
15616;SDS011;7908;51.688;7.130;2022-08-14T01:43:08;7.83;;;7.13;;
15616;SDS011;7908;51.688;7.130;2022-08-14T01:45:47;8.27;;;7.47;;
15616;SDS011;7908;51.688;7.130;2022-08-14T01:48:33;8.17;;;7.47;;
15616;SDS011;7908;51.688;7.130;2022-08-14T01:51:06;7.87;;;7.17;;
15616;SDS011;7908;51.688;7.130;2022-08-14T01:53:47;8.10;;;7.30;;
15616;SDS011;7908;51.688;7.130;2022-08-14T01:56:22;7.53;;;6.93;;
15616;SDS011;7908;51.688;7.130;2022-08-14T01:59:05;7.90;;;7.20;;
15616;SDS011;7908;51.688;7.130;2022-08-14T02:01:44;8.33;;;7.63;;
15616;SDS011;7908;51.688;7.130;2022-08-14T02:04:25;8.30;;;7.60;;
15616;SDS011;7908;51.688;7.130;2022-08-14T02:07:19;8.30;;;7.47;;
15616;SDS011;7908;51.688;7.130;2022-08-14T02:10:13;8.23;;;7.53;;
15616;SDS011;7908;51.688;7.130;2022-08-14T02:12:52;8.70;;;7.80;;
15616;SDS011;7908;51.688;7.130;2022-08-14T02:15:25;8.40;;;7.70;;
15616;SDS011;7908;51.688;7.130;2022-08-14T02:17:54;8.38;;;7.57;;
15616;SDS011;7908;51.688;7.130;2022-08-14T02:20:29;8.97;;;8.13;;
15616;SDS011;7908;51.688;7.130;2022-08-14T02:23:03;8.27;;;7.57;;
15616;SDS011;7908;51.688;7.130;2022-08-14T02:25:35;9.97;;;9.07;;
15616;SDS011;7908;51.688;7.130;2022-08-14T02:28:05;9.30;;;8.33;;
15616;SDS011;7908;51.688;7.130;2022-08-14T02:30:57;13.60;;;8.73;;
15616;SDS011;7908;51.688;7.130;2022-08-14T02:33:34;9.10;;;8.40;;
15616;SDS011;7908;51.688;7.130;2022-08-14T02:36:09;8.67;;;7.93;;
15616;SDS011;7908;51.688;7.130;2022-08-14T02:38:59;8.47;;;7.87;;
15616;SDS011;7908;51.688;7.130;2022-08-14T02:41:35;9.03;;;8.33;;
15616;SDS011;7908;51.688;7.130;2022-08-14T02:44:23;9.03;;;8.33;;
15616;SDS011;7908;51.688;7.130;2022-08-14T02:46:55;10.50;;;9.00;;
15616;SDS011;7908;51.688;7.130;2022-08-14T02:49:27;9.00;;;8.30;;
15616;SDS011;7908;51.688;7.130;2022-08-14T02:51:59;9.60;;;8.70;;
15616;SDS011;7908;51.688;7.130;2022-08-14T02:54:52;10.70;;;9.70;;
15616;SDS011;7908;51.688;7.130;2022-08-14T02:57:28;10.30;;;9.50;;
15616;SDS011;7908;51.688;7.130;2022-08-14T03:00:06;9.67;;;8.93;;
15616;SDS011;7908;51.688;7.130;2022-08-14T03:02:44;9.80;;;8.97;;
15616;SDS011;7908;51.688;7.130;2022-08-14T03:05:25;9.83;;;8.90;;
15616;SDS011;7908;51.688;7.130;2022-08-14T03:08:03;10.13;;;9.33;;
15616;SDS011;7908;51.688;7.130;2022-08-14T03:10:41;10.07;;;9.20;;
15616;SDS011;7908;51.688;7.130;2022-08-14T03:13:18;9.47;;;8.57;;
15616;SDS011;7908;51.688;7.130;2022-08-14T03:15:50;9.93;;;9.03;;
15616;SDS011;7908;51.688;7.130;2022-08-14T03:18:24;10.20;;;9.40;;
15616;SDS011;7908;51.688;7.130;2022-08-14T03:21:04;10.33;;;9.40;;
15616;SDS011;7908;51.688;7.130;2022-08-14T03:23:38;10.40;;;9.50;;
15616;SDS011;7908;51.688;7.130;2022-08-14T03:26:09;9.63;;;8.77;;
15616;SDS011;7908;51.688;7.130;2022-08-14T03:28:59;10.60;;;9.70;;
15616;SDS011;7908;51.688;7.130;2022-08-14T03:31:29;10.43;;;9.53;;
15616;SDS011;7908;51.688;7.130;2022-08-14T03:34:05;10.17;;;9.27;;
15616;SDS011;7908;51.688;7.130;2022-08-14T03:36:50;9.80;;;9.00;;
15616;SDS011;7908;51.688;7.130;2022-08-14T03:39:44;11.37;;;10.37;;
15616;SDS011;7908;51.688;7.130;2022-08-14T03:42:19;10.53;;;9.53;;
15616;SDS011;7908;51.688;7.130;2022-08-14T03:45:03;10.57;;;9.67;;
15616;SDS011;7908;51.688;7.130;2022-08-14T03:47:53;10.50;;;9.60;;
15616;SDS011;7908;51.688;7.130;2022-08-14T03:50:24;10.30;;;9.40;;
15616;SDS011;7908;51.688;7.130;2022-08-14T03:53:00;10.80;;;9.80;;
15616;SDS011;7908;51.688;7.130;2022-08-14T03:55:31;10.90;;;9.97;;
15616;SDS011;7908;51.688;7.130;2022-08-14T03:58:03;10.90;;;9.90;;
15616;SDS011;7908;51.688;7.130;2022-08-14T04:00:36;10.60;;;9.70;;
15616;SDS011;7908;51.688;7.130;2022-08-14T04:03:11;10.73;;;9.67;;
15616;SDS011;7908;51.688;7.130;2022-08-14T04:05:50;10.63;;;9.63;;
15616;SDS011;7908;51.688;7.130;2022-08-14T04:08:19;10.80;;;9.90;;
15616;SDS011;7908;51.688;7.130;2022-08-14T04:10:57;9.97;;;9.17;;
15616;SDS011;7908;51.688;7.130;2022-08-14T04:13:36;10.87;;;9.97;;
15616;SDS011;7908;51.688;7.130;2022-08-14T04:16:10;10.83;;;9.90;;
15616;SDS011;7908;51.688;7.130;2022-08-14T04:18:44;11.10;;;10.10;;
15616;SDS011;7908;51.688;7.130;2022-08-14T04:21:18;11.43;;;10.37;;
15616;SDS011;7908;51.688;7.130;2022-08-14T04:23:52;11.77;;;10.77;;
15616;SDS011;7908;51.688;7.130;2022-08-14T04:26:25;11.20;;;10.30;;
15616;SDS011;7908;51.688;7.130;2022-08-14T04:29:08;11.57;;;10.53;;
15616;SDS011;7908;51.688;7.130;2022-08-14T04:31:44;11.27;;;10.37;;
15616;SDS011;7908;51.688;7.130;2022-08-14T04:34:34;11.70;;;10.67;;
15616;SDS011;7908;51.688;7.130;2022-08-14T04:37:18;11.73;;;10.53;;
15616;SDS011;7908;51.688;7.130;2022-08-14T04:40:07;11.70;;;10.80;;
15616;SDS011;7908;51.688;7.130;2022-08-14T04:42:58;12.47;;;11.40;;
15616;SDS011;7908;51.688;7.130;2022-08-14T04:45:46;12.57;;;11.47;;
15616;SDS011;7908;51.688;7.130;2022-08-14T04:48:19;12.80;;;11.70;;
15616;SDS011;7908;51.688;7.130;2022-08-14T04:51:09;13.03;;;11.83;;
15616;SDS011;7908;51.688;7.130;2022-08-14T04:53:41;12.87;;;11.57;;
15616;SDS011;7908;51.688;7.130;2022-08-14T04:56:14;11.13;;;10.23;;
15616;SDS011;7908;51.688;7.130;2022-08-14T04:58:59;12.00;;;10.90;;
15616;SDS011;7908;51.688;7.130;2022-08-14T05:01:36;11.23;;;10.20;;
15616;SDS011;7908;51.688;7.130;2022-08-14T05:04:18;11.93;;;10.83;;
15616;SDS011;7908;51.688;7.130;2022-08-14T05:06:51;10.97;;;10.07;;
15616;SDS011;7908;51.688;7.130;2022-08-14T05:09:23;10.77;;;9.87;;
15616;SDS011;7908;51.688;7.130;2022-08-14T05:11:56;11.23;;;10.10;;
15616;SDS011;7908;51.688;7.130;2022-08-14T05:14:45;9.77;;;8.97;;
15616;SDS011;7908;51.688;7.130;2022-08-14T05:17:21;10.50;;;9.70;;
15616;SDS011;7908;51.688;7.130;2022-08-14T05:20:11;10.80;;;9.90;;
15616;SDS011;7908;51.688;7.130;2022-08-14T05:23:03;11.07;;;10.07;;
15616;SDS011;7908;51.688;7.130;2022-08-14T05:25:36;10.53;;;9.63;;
15616;SDS011;7908;51.688;7.130;2022-08-14T05:28:09;10.63;;;9.73;;
15616;SDS011;7908;51.688;7.130;2022-08-14T05:30:42;10.93;;;9.93;;
15616;SDS011;7908;51.688;7.130;2022-08-14T05:33:13;11.43;;;10.23;;
15616;SDS011;7908;51.688;7.130;2022-08-14T05:35:47;11.50;;;10.45;;
15616;SDS011;7908;51.688;7.130;2022-08-14T05:38:17;11.27;;;10.27;;
15616;SDS011;7908;51.688;7.130;2022-08-14T05:40:57;11.07;;;9.87;;
15616;SDS011;7908;51.688;7.130;2022-08-14T05:43:34;11.30;;;10.23;;
15616;SDS011;7908;51.688;7.130;2022-08-14T05:46:08;11.05;;;10.13;;
15616;SDS011;7908;51.688;7.130;2022-08-14T05:48:41;10.80;;;9.90;;
15616;SDS011;7908;51.688;7.130;2022-08-14T05:51:12;10.90;;;9.90;;
15616;SDS011;7908;51.688;7.130;2022-08-14T05:53:44;11.50;;;10.48;;
15616;SDS011;7908;51.688;7.130;2022-08-14T05:56:29;11.60;;;10.38;;
15616;SDS011;7908;51.688;7.130;2022-08-14T05:59:02;11.02;;;9.93;;
15616;SDS011;7908;51.688;7.130;2022-08-14T06:01:33;10.50;;;9.50;;
15616;SDS011;7908;51.688;7.130;2022-08-14T06:04:07;11.13;;;10.02;;
15616;SDS011;7908;51.688;7.130;2022-08-14T06:06:42;9.93;;;9.13;;
15616;SDS011;7908;51.688;7.130;2022-08-14T06:09:12;10.70;;;9.70;;
15616;SDS011;7908;51.688;7.130;2022-08-14T06:11:42;10.63;;;9.13;;
15616;SDS011;7908;51.688;7.130;2022-08-14T06:14:15;9.32;;;8.52;;
15616;SDS011;7908;51.688;7.130;2022-08-14T06:16:49;10.45;;;9.55;;
15616;SDS011;7908;51.688;7.130;2022-08-14T06:19:20;9.13;;;8.43;;
15616;SDS011;7908;51.688;7.130;2022-08-14T06:21:56;9.77;;;8.98;;
15616;SDS011;7908;51.688;7.130;2022-08-14T06:24:28;9.88;;;9.00;;
15616;SDS011;7908;51.688;7.130;2022-08-14T06:27:01;9.35;;;8.40;;
15616;SDS011;7908;51.688;7.130;2022-08-14T06:29:36;8.27;;;7.65;;
15616;SDS011;7908;51.688;7.130;2022-08-14T06:32:10;9.27;;;7.97;;
15616;SDS011;7908;51.688;7.130;2022-08-14T06:35:00;9.57;;;8.75;;
15616;SDS011;7908;51.688;7.130;2022-08-14T06:37:43;9.05;;;8.15;;
15616;SDS011;7908;51.688;7.130;2022-08-14T06:40:15;8.93;;;8.13;;
15616;SDS011;7908;51.688;7.130;2022-08-14T06:42:54;9.25;;;8.45;;
15616;SDS011;7908;51.688;7.130;2022-08-14T06:45:30;9.30;;;8.13;;
15616;SDS011;7908;51.688;7.130;2022-08-14T06:48:20;9.10;;;8.30;;
15616;SDS011;7908;51.688;7.130;2022-08-14T06:50:51;8.93;;;8.20;;
15616;SDS011;7908;51.688;7.130;2022-08-14T06:53:27;9.25;;;8.35;;
15616;SDS011;7908;51.688;7.130;2022-08-14T06:56:01;8.88;;;7.97;;
15616;SDS011;7908;51.688;7.130;2022-08-14T06:58:30;8.18;;;7.38;;
15616;SDS011;7908;51.688;7.130;2022-08-14T07:01:00;8.98;;;8.10;;
15616;SDS011;7908;51.688;7.130;2022-08-14T07:03:54;8.23;;;7.43;;
15616;SDS011;7908;51.688;7.130;2022-08-14T07:06:50;8.90;;;8.00;;
15616;SDS011;7908;51.688;7.130;2022-08-14T07:09:27;8.05;;;7.35;;
15616;SDS011;7908;51.688;7.130;2022-08-14T07:12:15;7.65;;;7.05;;
15616;SDS011;7908;51.688;7.130;2022-08-14T07:15:10;8.30;;;7.60;;
15616;SDS011;7908;51.688;7.130;2022-08-14T07:17:45;7.97;;;7.28;;
15616;SDS011;7908;51.688;7.130;2022-08-14T07:20:19;8.18;;;7.47;;
15616;SDS011;7908;51.688;7.130;2022-08-14T07:22:57;11.90;;;8.27;;
15616;SDS011;7908;51.688;7.130;2022-08-14T07:25:39;8.52;;;7.70;;
15616;SDS011;7908;51.688;7.130;2022-08-14T07:28:18;8.25;;;7.20;;
15616;SDS011;7908;51.688;7.130;2022-08-14T07:30:53;7.68;;;7.07;;
15616;SDS011;7908;51.688;7.130;2022-08-14T07:33:32;7.60;;;6.95;;
15616;SDS011;7908;51.688;7.130;2022-08-14T07:36:08;7.88;;;7.18;;
15616;SDS011;7908;51.688;7.130;2022-08-14T07:38:55;8.93;;;7.70;;
15616;SDS011;7908;51.688;7.130;2022-08-14T07:41:43;8.30;;;7.60;;
15616;SDS011;7908;51.688;7.130;2022-08-14T07:44:15;7.55;;;6.95;;
15616;SDS011;7908;51.688;7.130;2022-08-14T07:47:11;7.55;;;6.95;;
15616;SDS011;7908;51.688;7.130;2022-08-14T07:49:45;7.80;;;7.10;;
15616;SDS011;7908;51.688;7.130;2022-08-14T07:52:28;7.18;;;6.57;;
15616;SDS011;7908;51.688;7.130;2022-08-14T07:54:58;8.82;;;7.72;;
15616;SDS011;7908;51.688;7.130;2022-08-14T07:57:35;8.00;;;7.30;;
15616;SDS011;7908;51.688;7.130;2022-08-14T08:00:08;7.57;;;6.88;;
15616;SDS011;7908;51.688;7.130;2022-08-14T08:02:57;7.45;;;6.75;;
15616;SDS011;7908;51.688;7.130;2022-08-14T08:05:30;7.25;;;6.65;;
15616;SDS011;7908;51.688;7.130;2022-08-14T08:08:00;8.32;;;7.53;;
15616;SDS011;7908;51.688;7.130;2022-08-14T08:10:53;7.22;;;6.63;;
15616;SDS011;7908;51.688;7.130;2022-08-14T08:13:30;7.82;;;7.13;;
15616;SDS011;7908;51.688;7.130;2022-08-14T08:16:20;7.75;;;6.95;;
15616;SDS011;7908;51.688;7.130;2022-08-14T08:18:53;7.18;;;6.47;;
15616;SDS011;7908;51.688;7.130;2022-08-14T08:21:34;6.70;;;6.10;;
15616;SDS011;7908;51.688;7.130;2022-08-14T08:24:13;7.97;;;7.28;;
15616;SDS011;7908;51.688;7.130;2022-08-14T08:26:46;7.30;;;6.63;;
15616;SDS011;7908;51.688;7.130;2022-08-14T08:29:21;7.10;;;6.40;;
15616;SDS011;7908;51.688;7.130;2022-08-14T08:31:57;8.52;;;6.82;;
15616;SDS011;7908;51.688;7.130;2022-08-14T08:34:41;7.20;;;6.60;;
15616;SDS011;7908;51.688;7.130;2022-08-14T08:37:13;7.13;;;6.43;;
15616;SDS011;7908;51.688;7.130;2022-08-14T08:39:45;7.78;;;6.35;;
15616;SDS011;7908;51.688;7.130;2022-08-14T08:42:31;6.93;;;6.32;;
15616;SDS011;7908;51.688;7.130;2022-08-14T08:45:09;7.10;;;6.22;;
15616;SDS011;7908;51.688;7.130;2022-08-14T08:47:49;7.45;;;6.75;;
15616;SDS011;7908;51.688;7.130;2022-08-14T08:50:22;7.10;;;6.50;;
15616;SDS011;7908;51.688;7.130;2022-08-14T08:52:56;6.43;;;5.78;;
15616;SDS011;7908;51.688;7.130;2022-08-14T08:55:34;7.43;;;6.63;;
15616;SDS011;7908;51.688;7.130;2022-08-14T08:58:10;6.78;;;6.18;;
15616;SDS011;7908;51.688;7.130;2022-08-14T09:00:56;7.00;;;6.40;;
15616;SDS011;7908;51.688;7.130;2022-08-14T09:03:28;6.72;;;6.18;;
15616;SDS011;7908;51.688;7.130;2022-08-14T09:06:11;6.93;;;6.32;;
15616;SDS011;7908;51.688;7.130;2022-08-14T09:09:00;7.00;;;6.38;;
15616;SDS011;7908;51.688;7.130;2022-08-14T09:11:38;7.35;;;6.65;;
15616;SDS011;7908;51.688;7.130;2022-08-14T09:14:09;8.88;;;6.32;;
15616;SDS011;7908;51.688;7.130;2022-08-14T09:16:48;6.82;;;6.18;;
15616;SDS011;7908;51.688;7.130;2022-08-14T09:19:20;6.90;;;6.30;;
15616;SDS011;7908;51.688;7.130;2022-08-14T09:21:54;7.05;;;6.35;;
15616;SDS011;7908;51.688;7.130;2022-08-14T09:24:24;6.57;;;5.82;;
15616;SDS011;7908;51.688;7.130;2022-08-14T09:27:02;7.20;;;6.50;;
15616;SDS011;7908;51.688;7.130;2022-08-14T09:29:33;6.97;;;6.18;;
15616;SDS011;7908;51.688;7.130;2022-08-14T09:32:08;7.43;;;6.22;;
15616;SDS011;7908;51.688;7.130;2022-08-14T09:35:08;6.43;;;5.47;;
15616;SDS011;7908;51.688;7.130;2022-08-14T09:37:52;6.15;;;5.65;;
15616;SDS011;7908;51.688;7.130;2022-08-14T09:40:36;6.18;;;5.65;;
15616;SDS011;7908;51.688;7.130;2022-08-14T09:43:21;6.47;;;5.90;;
15616;SDS011;7908;51.688;7.130;2022-08-14T09:46:06;6.93;;;6.32;;
15616;SDS011;7908;51.688;7.130;2022-08-14T09:48:37;7.18;;;6.20;;
15616;SDS011;7908;51.688;7.130;2022-08-14T09:51:17;6.57;;;5.60;;
15616;SDS011;7908;51.688;7.130;2022-08-14T09:53:59;6.43;;;5.90;;
15616;SDS011;7908;51.688;7.130;2022-08-14T09:56:52;6.78;;;5.97;;
15616;SDS011;7908;51.688;7.130;2022-08-14T09:59:25;6.57;;;5.97;;
15616;SDS011;7908;51.688;7.130;2022-08-14T10:02:15;6.28;;;5.68;;
15616;SDS011;7908;51.688;7.130;2022-08-14T10:05:02;6.85;;;6.25;;
15616;SDS011;7908;51.688;7.130;2022-08-14T10:07:36;8.20;;;6.25;;
15616;SDS011;7908;51.688;7.130;2022-08-14T10:10:26;5.93;;;5.43;;
15616;SDS011;7908;51.688;7.130;2022-08-14T10:13:05;6.68;;;6.10;;
15616;SDS011;7908;51.688;7.130;2022-08-14T10:15:43;6.50;;;6.00;;
15616;SDS011;7908;51.688;7.130;2022-08-14T10:18:17;6.57;;;5.97;;
15616;SDS011;7908;51.688;7.130;2022-08-14T10:20:53;5.97;;;5.47;;
15616;SDS011;7908;51.688;7.130;2022-08-14T10:23:39;6.63;;;5.97;;
15616;SDS011;7908;51.688;7.130;2022-08-14T10:26:16;6.00;;;5.47;;
15616;SDS011;7908;51.688;7.130;2022-08-14T10:29:03;6.32;;;5.82;;
15616;SDS011;7908;51.688;7.130;2022-08-14T10:31:55;6.28;;;5.78;;
15616;SDS011;7908;51.688;7.130;2022-08-14T10:34:49;6.05;;;5.45;;
15616;SDS011;7908;51.688;7.130;2022-08-14T10:37:41;5.82;;;5.32;;
15616;SDS011;7908;51.688;7.130;2022-08-14T10:40:26;7.07;;;6.00;;
15616;SDS011;7908;51.688;7.130;2022-08-14T10:43:19;6.95;;;4.63;;
15616;SDS011;7908;51.688;7.130;2022-08-14T10:45:56;5.25;;;4.75;;
15616;SDS011;7908;51.688;7.130;2022-08-14T10:48:58;5.45;;;5.00;;
15616;SDS011;7908;51.688;7.130;2022-08-14T10:51:36;5.32;;;4.82;;
15616;SDS011;7908;51.688;7.130;2022-08-14T10:54:09;5.72;;;4.65;;
15616;SDS011;7908;51.688;7.130;2022-08-14T10:57:12;5.45;;;4.47;;
15616;SDS011;7908;51.688;7.130;2022-08-14T10:59:52;5.25;;;4.20;;
15616;SDS011;7908;51.688;7.130;2022-08-14T11:02:27;4.97;;;4.57;;
15616;SDS011;7908;51.688;7.130;2022-08-14T11:05:22;5.95;;;4.97;;
15616;SDS011;7908;51.688;7.130;2022-08-14T11:07:54;7.40;;;5.25;;
15616;SDS011;7908;51.688;7.130;2022-08-14T11:10:40;5.00;;;4.50;;
15616;SDS011;7908;51.688;7.130;2022-08-14T11:13:18;4.80;;;4.40;;
15616;SDS011;7908;51.688;7.130;2022-08-14T11:15:57;5.18;;;4.68;;
15616;SDS011;7908;51.688;7.130;2022-08-14T11:18:29;5.05;;;4.53;;
15616;SDS011;7908;51.688;7.130;2022-08-14T11:21:06;4.90;;;4.50;;
15616;SDS011;7908;51.688;7.130;2022-08-14T11:23:40;4.90;;;4.50;;
15616;SDS011;7908;51.688;7.130;2022-08-14T11:26:22;4.95;;;4.47;;
15616;SDS011;7908;51.688;7.130;2022-08-14T11:29:17;5.10;;;4.60;;
15616;SDS011;7908;51.688;7.130;2022-08-14T11:32:04;5.15;;;4.60;;
15616;SDS011;7908;51.688;7.130;2022-08-14T11:34:37;4.85;;;3.95;;
15616;SDS011;7908;51.688;7.130;2022-08-14T11:37:12;4.72;;;4.32;;
15616;SDS011;7908;51.688;7.130;2022-08-14T11:40:02;8.82;;;4.60;;
15616;SDS011;7908;51.688;7.130;2022-08-14T11:42:35;5.03;;;4.63;;
15616;SDS011;7908;51.688;7.130;2022-08-14T11:45:25;4.78;;;4.30;;
15616;SDS011;7908;51.688;7.130;2022-08-14T11:48:12;4.80;;;4.30;;
15616;SDS011;7908;51.688;7.130;2022-08-14T11:51:10;5.88;;;4.78;;
15616;SDS011;7908;51.688;7.130;2022-08-14T11:53:50;4.68;;;4.28;;
15616;SDS011;7908;51.688;7.130;2022-08-14T11:56:22;6.13;;;4.88;;
15616;SDS011;7908;51.688;7.130;2022-08-14T11:58:57;5.05;;;4.43;;
15616;SDS011;7908;51.688;7.130;2022-08-14T12:01:28;5.30;;;4.90;;
15616;SDS011;7908;51.688;7.130;2022-08-14T12:04:07;5.50;;;5.00;;
15616;SDS011;7908;51.688;7.130;2022-08-14T12:06:59;6.50;;;4.90;;
15616;SDS011;7908;51.688;7.130;2022-08-14T12:09:37;5.47;;;5.00;;
15616;SDS011;7908;51.688;7.130;2022-08-14T12:12:19;5.03;;;4.60;;
15616;SDS011;7908;51.688;7.130;2022-08-14T12:15:04;4.53;;;4.22;;
15616;SDS011;7908;51.688;7.130;2022-08-14T12:17:42;4.97;;;4.57;;
15616;SDS011;7908;51.688;7.130;2022-08-14T12:20:27;5.65;;;4.55;;
15616;SDS011;7908;51.688;7.130;2022-08-14T12:23:02;4.65;;;4.25;;
15616;SDS011;7908;51.688;7.130;2022-08-14T12:25:40;4.93;;;4.35;;
15616;SDS011;7908;51.688;7.130;2022-08-14T12:28:27;5.70;;;4.70;;
15616;SDS011;7908;51.688;7.130;2022-08-14T12:31:19;5.88;;;4.63;;
15616;SDS011;7908;51.688;7.130;2022-08-14T12:34:13;5.18;;;4.68;;
15616;SDS011;7908;51.688;7.130;2022-08-14T12:36:48;5.47;;;4.53;;
15616;SDS011;7908;51.688;7.130;2022-08-14T12:39:32;5.07;;;4.65;;
15616;SDS011;7908;51.688;7.130;2022-08-14T12:42:08;5.60;;;5.10;;
15616;SDS011;7908;51.688;7.130;2022-08-14T12:45:00;5.25;;;4.85;;
15616;SDS011;7908;51.688;7.130;2022-08-14T12:47:32;6.72;;;4.60;;
15616;SDS011;7908;51.688;7.130;2022-08-14T12:50:03;5.13;;;4.72;;
15616;SDS011;7908;51.688;7.130;2022-08-14T12:52:41;11.75;;;9.95;;
15616;SDS011;7908;51.688;7.130;2022-08-14T12:55:32;10.45;;;8.00;;
15616;SDS011;7908;51.688;7.130;2022-08-14T12:58:26;7.53;;;5.70;;
15616;SDS011;7908;51.688;7.130;2022-08-14T13:01:18;5.47;;;4.97;;
15616;SDS011;7908;51.688;7.130;2022-08-14T13:04:04;4.97;;;4.50;;
15616;SDS011;7908;51.688;7.130;2022-08-14T13:06:39;5.32;;;4.82;;
15616;SDS011;7908;51.688;7.130;2022-08-14T13:09:17;4.75;;;4.35;;
15616;SDS011;7908;51.688;7.130;2022-08-14T13:12:05;5.63;;;4.90;;
15616;SDS011;7908;51.688;7.130;2022-08-14T13:15:01;5.88;;;4.97;;
15616;SDS011;7908;51.688;7.130;2022-08-14T13:17:41;6.60;;;5.63;;
15616;SDS011;7908;51.688;7.130;2022-08-14T13:20:19;5.32;;;4.82;;
15616;SDS011;7908;51.688;7.130;2022-08-14T13:22:58;6.68;;;5.93;;
15616;SDS011;7908;51.688;7.130;2022-08-14T13:25:42;6.75;;;5.50;;
15616;SDS011;7908;51.688;7.130;2022-08-14T13:28:22;5.75;;;5.25;;
15616;SDS011;7908;51.688;7.130;2022-08-14T13:30:59;5.47;;;4.97;;
15616;SDS011;7908;51.688;7.130;2022-08-14T13:33:37;5.10;;;4.70;;
15616;SDS011;7908;51.688;7.130;2022-08-14T13:36:13;4.80;;;4.40;;
15616;SDS011;7908;51.688;7.130;2022-08-14T13:39:09;5.28;;;4.78;;
15616;SDS011;7908;51.688;7.130;2022-08-14T13:41:42;4.95;;;4.53;;
15616;SDS011;7908;51.688;7.130;2022-08-14T13:44:22;4.88;;;4.32;;
15616;SDS011;7908;51.688;7.130;2022-08-14T13:47:01;5.45;;;5.05;;
15616;SDS011;7908;51.688;7.130;2022-08-14T13:49:34;5.55;;;5.07;;
15616;SDS011;7908;51.688;7.130;2022-08-14T13:52:29;4.80;;;4.40;;
15616;SDS011;7908;51.688;7.130;2022-08-14T13:55:20;5.50;;;4.97;;
15616;SDS011;7908;51.688;7.130;2022-08-14T13:57:56;5.07;;;4.57;;
15616;SDS011;7908;51.688;7.130;2022-08-14T14:00:31;5.95;;;4.90;;
15616;SDS011;7908;51.688;7.130;2022-08-14T14:03:19;4.80;;;4.40;;
15616;SDS011;7908;51.688;7.130;2022-08-14T14:05:57;6.28;;;5.00;;
15616;SDS011;7908;51.688;7.130;2022-08-14T14:08:44;5.07;;;4.68;;
15616;SDS011;7908;51.688;7.130;2022-08-14T14:11:21;5.20;;;4.70;;
15616;SDS011;7908;51.688;7.130;2022-08-14T14:13:56;7.20;;;4.85;;
15616;SDS011;7908;51.688;7.130;2022-08-14T14:16:35;5.38;;;4.53;;
15616;SDS011;7908;51.688;7.130;2022-08-14T14:19:12;5.03;;;4.25;;
15616;SDS011;7908;51.688;7.130;2022-08-14T14:21:55;5.00;;;4.50;;
15616;SDS011;7908;51.688;7.130;2022-08-14T14:24:36;5.28;;;4.75;;
15616;SDS011;7908;51.688;7.130;2022-08-14T14:27:09;5.05;;;4.57;;
15616;SDS011;7908;51.688;7.130;2022-08-14T14:30:00;5.30;;;4.60;;
15616;SDS011;7908;51.688;7.130;2022-08-14T14:33:01;5.28;;;4.82;;
15616;SDS011;7908;51.688;7.130;2022-08-14T14:36:01;5.18;;;4.72;;
15616;SDS011;7908;51.688;7.130;2022-08-14T14:38:35;5.93;;;5.13;;
15616;SDS011;7908;51.688;7.130;2022-08-14T14:41:16;5.10;;;4.70;;
15616;SDS011;7908;51.688;7.130;2022-08-14T14:44:04;5.30;;;4.80;;
15616;SDS011;7908;51.688;7.130;2022-08-14T14:46:43;5.95;;;4.40;;
15616;SDS011;7908;51.688;7.130;2022-08-14T14:49:25;4.80;;;4.30;;
15616;SDS011;7908;51.688;7.130;2022-08-14T14:52:16;4.90;;;4.22;;
15616;SDS011;7908;51.688;7.130;2022-08-14T14:54:54;4.93;;;4.35;;
15616;SDS011;7908;51.688;7.130;2022-08-14T14:57:29;5.10;;;4.32;;
15616;SDS011;7908;51.688;7.130;2022-08-14T15:00:03;6.22;;;4.72;;
15616;SDS011;7908;51.688;7.130;2022-08-14T15:02:45;5.13;;;4.63;;
15616;SDS011;7908;51.688;7.130;2022-08-14T15:05:27;4.68;;;4.28;;
15616;SDS011;7908;51.688;7.130;2022-08-14T15:07:58;5.05;;;4.28;;
15616;SDS011;7908;51.688;7.130;2022-08-14T15:10:32;6.95;;;4.97;;
15616;SDS011;7908;51.688;7.130;2022-08-14T15:13:09;5.65;;;5.05;;
15616;SDS011;7908;51.688;7.130;2022-08-14T15:15:44;4.97;;;4.57;;
15616;SDS011;7908;51.688;7.130;2022-08-14T15:18:23;5.00;;;4.40;;
15616;SDS011;7908;51.688;7.130;2022-08-14T15:21:04;5.35;;;4.35;;
15616;SDS011;7908;51.688;7.130;2022-08-14T15:23:57;5.55;;;4.35;;
15616;SDS011;7908;51.688;7.130;2022-08-14T15:26:34;4.20;;;3.80;;
15616;SDS011;7908;51.688;7.130;2022-08-14T15:29:08;4.60;;;4.20;;
15616;SDS011;7908;51.688;7.130;2022-08-14T15:31:46;4.55;;;4.07;;
15616;SDS011;7908;51.688;7.130;2022-08-14T15:34:21;4.50;;;4.10;;
15616;SDS011;7908;51.688;7.130;2022-08-14T15:37:14;7.47;;;4.22;;
15616;SDS011;7908;51.688;7.130;2022-08-14T15:39:50;4.20;;;3.80;;
15616;SDS011;7908;51.688;7.130;2022-08-14T15:42:25;5.38;;;3.80;;
15616;SDS011;7908;51.688;7.130;2022-08-14T15:45:08;4.40;;;4.00;;
15616;SDS011;7908;51.688;7.130;2022-08-14T15:47:40;5.53;;;3.85;;
15616;SDS011;7908;51.688;7.130;2022-08-14T15:50:10;4.38;;;3.97;;
15616;SDS011;7908;51.688;7.130;2022-08-14T15:52:41;4.30;;;3.65;;
15616;SDS011;7908;51.688;7.130;2022-08-14T15:55:15;4.28;;;3.97;;
15616;SDS011;7908;51.688;7.130;2022-08-14T15:57:50;4.93;;;4.45;;
15616;SDS011;7908;51.688;7.130;2022-08-14T16:00:31;4.90;;;4.38;;
15616;SDS011;7908;51.688;7.130;2022-08-14T16:03:19;4.82;;;4.43;;
15616;SDS011;7908;51.688;7.130;2022-08-14T16:06:03;5.28;;;4.88;;
15616;SDS011;7908;51.688;7.130;2022-08-14T16:08:44;4.88;;;4.45;;
15616;SDS011;7908;51.688;7.130;2022-08-14T16:11:27;5.05;;;4.65;;